createdAt,value
2017-12-30T00:01:00.323Z,2.40
2017-12-30T00:03:29.764Z,2.40
2017-12-30T00:05:59.284Z,2.40
2017-12-30T00:08:28.777Z,2.40
2017-12-30T00:10:58.661Z,2.40
2017-12-30T00:13:28.196Z,2.40
2017-12-30T00:15:58.113Z,2.40
2017-12-30T00:18:27.830Z,2.40
2017-12-30T00:20:57.605Z,2.40
2017-12-30T00:23:27.310Z,2.40
2017-12-30T00:25:56.758Z,2.40
2017-12-30T00:28:26.233Z,2.40
2017-12-30T00:30:56.515Z,2.40
2017-12-30T00:33:26.050Z,2.40
2017-12-30T00:35:56.606Z,2.40
2017-12-30T00:38:26.193Z,2.40
2017-12-30T00:40:55.895Z,2.40
2017-12-30T00:43:25.366Z,2.40
2017-12-30T00:45:55.224Z,2.40
2017-12-30T00:48:25.457Z,2.40
2017-12-30T00:50:54.994Z,2.40
2017-12-30T00:53:24.771Z,2.40
2017-12-30T00:55:54.427Z,2.40
2017-12-30T00:58:23.946Z,2.40
2017-12-30T01:00:53.577Z,2.40
2017-12-30T01:03:23.259Z,2.40
2017-12-30T01:05:52.967Z,2.40
2017-12-30T01:08:22.693Z,2.40
2017-12-30T01:10:52.158Z,2.40
2017-12-30T01:13:23.554Z,2.40
2017-12-30T01:15:53.206Z,2.40
2017-12-30T01:18:23.658Z,2.40
2017-12-30T01:20:53.475Z,2.40
2017-12-30T01:23:23.143Z,2.40
2017-12-30T01:25:52.579Z,2.40
2017-12-30T01:28:22.959Z,2.40
2017-12-30T01:30:52.493Z,2.40
2017-12-30T01:33:22.251Z,2.40
2017-12-30T01:35:52.095Z,2.40
2017-12-30T01:38:21.643Z,2.40
2017-12-30T01:40:51.110Z,2.40
2017-12-30T01:43:21.111Z,2.40
2017-12-30T01:45:51.867Z,2.40
2017-12-30T01:48:21.992Z,2.40
2017-12-30T01:50:52.064Z,2.40
2017-12-30T01:53:21.780Z,2.40
2017-12-30T01:55:52.501Z,2.40
2017-12-30T01:58:22.122Z,2.40
2017-12-30T02:00:52.392Z,2.40
2017-12-30T02:03:22.087Z,2.40
2017-12-30T02:05:51.595Z,2.40
2017-12-30T02:08:21.023Z,2.40
2017-12-30T02:10:50.539Z,2.40
2017-12-30T02:13:20.046Z,2.40
2017-12-30T02:15:49.495Z,2.40
2017-12-30T02:18:19.190Z,2.40
2017-12-30T02:20:49.165Z,2.40
2017-12-30T02:23:18.769Z,2.40
2017-12-30T02:25:49.377Z,2.40
2017-12-30T02:28:19.398Z,2.40
2017-12-30T02:30:49.000Z,2.40
2017-12-30T02:33:18.711Z,2.40
2017-12-30T02:35:48.130Z,2.40
2017-12-30T02:38:18.376Z,2.40
2017-12-30T02:40:47.794Z,2.40
2017-12-30T02:43:17.318Z,2.30
2017-12-30T02:45:46.891Z,2.40
2017-12-30T02:48:16.523Z,2.40
2017-12-30T02:50:46.218Z,2.30
2017-12-30T02:53:15.729Z,2.40
2017-12-30T02:55:45.171Z,2.40
2017-12-30T02:58:14.619Z,2.30
2017-12-30T03:00:44.225Z,2.30
2017-12-30T03:03:14.453Z,2.40
2017-12-30T03:05:43.911Z,2.30
2017-12-30T03:08:13.388Z,2.40
2017-12-30T03:10:42.846Z,2.40
2017-12-30T03:13:13.394Z,2.40
2017-12-30T03:15:43.618Z,2.30
2017-12-30T03:18:13.090Z,2.30
2017-12-30T03:20:42.581Z,2.40
2017-12-30T03:23:12.045Z,2.40
2017-12-30T03:25:41.603Z,2.30
2017-12-30T03:28:12.110Z,2.40
2017-12-30T03:30:41.927Z,2.40
2017-12-30T03:33:11.575Z,2.40
2017-12-30T03:35:41.068Z,2.30
2017-12-30T03:38:10.567Z,2.40
2017-12-30T03:40:40.022Z,2.40
2017-12-30T03:43:09.561Z,2.30
2017-12-30T03:45:39.230Z,2.30
2017-12-30T03:48:08.682Z,2.40
2017-12-30T03:50:38.289Z,2.40
2017-12-30T03:53:07.797Z,2.40
2017-12-30T03:55:37.280Z,2.40
2017-12-30T03:58:06.725Z,2.40
2017-12-30T04:00:36.953Z,2.40
2017-12-30T04:03:06.412Z,2.40
2017-12-30T04:05:36.103Z,2.40
2017-12-30T04:08:05.559Z,2.40
2017-12-30T04:10:35.279Z,2.40
2017-12-30T04:13:05.473Z,2.40
2017-12-30T04:15:35.231Z,2.40
2017-12-30T04:18:06.265Z,2.40
2017-12-30T04:20:35.685Z,2.40
2017-12-30T04:23:05.137Z,2.40
2017-12-30T04:25:36.282Z,2.40
2017-12-30T04:28:05.807Z,2.40
2017-12-30T04:30:35.629Z,2.40
2017-12-30T04:33:05.286Z,2.40
2017-12-30T04:35:34.862Z,2.40
2017-12-30T04:38:04.302Z,2.50
2017-12-30T04:40:35.425Z,2.40
2017-12-30T04:43:05.211Z,2.50
2017-12-30T04:45:34.677Z,2.50
2017-12-30T04:48:04.356Z,2.50
2017-12-30T04:50:34.065Z,2.50
2017-12-30T04:53:03.598Z,2.50
2017-12-30T04:55:33.087Z,2.50
2017-12-30T04:58:02.602Z,2.50
2017-12-30T05:00:32.294Z,2.50
2017-12-30T05:03:02.032Z,2.50
2017-12-30T05:05:31.703Z,2.50
2017-12-30T05:08:01.183Z,2.60
2017-12-30T05:10:30.661Z,2.60
2017-12-30T05:13:00.133Z,2.60
2017-12-30T05:15:29.656Z,2.60
2017-12-30T05:17:59.126Z,2.60
2017-12-30T05:20:28.601Z,2.60
2017-12-30T05:22:58.726Z,2.60
2017-12-30T05:25:28.226Z,2.70
2017-12-30T05:27:57.750Z,2.70
2017-12-30T05:30:28.325Z,2.70
2017-12-30T05:32:58.731Z,2.80
2017-12-30T05:35:28.189Z,2.80
2017-12-30T05:37:57.823Z,2.80
2017-12-30T05:40:27.262Z,2.80
2017-12-30T05:42:56.830Z,2.90
2017-12-30T05:45:26.483Z,2.90
2017-12-30T05:47:55.969Z,3.00
2017-12-30T05:50:26.422Z,2.90
2017-12-30T05:52:56.712Z,3.00
2017-12-30T05:55:26.131Z,3.00
2017-12-30T05:57:55.609Z,3.00
2017-12-30T06:00:25.038Z,3.00
2017-12-30T06:02:54.718Z,3.10
2017-12-30T06:05:24.130Z,3.10
2017-12-30T06:07:53.788Z,3.10
2017-12-30T06:10:23.231Z,3.10
2017-12-30T06:12:52.679Z,3.10
2017-12-30T06:15:22.146Z,3.10
2017-12-30T06:17:51.818Z,3.10
2017-12-30T06:20:21.342Z,3.10
2017-12-30T06:22:50.829Z,3.20
2017-12-30T06:25:20.318Z,3.10
2017-12-30T06:27:50.092Z,3.20
2017-12-30T06:30:19.533Z,3.20
2017-12-30T06:32:49.862Z,3.20
2017-12-30T06:35:19.571Z,3.20
2017-12-30T06:37:49.117Z,3.20
2017-12-30T06:40:18.610Z,3.20
2017-12-30T06:42:48.218Z,3.20
2017-12-30T06:45:17.757Z,3.20
2017-12-30T06:47:47.803Z,3.20
2017-12-30T06:50:17.480Z,3.20
2017-12-30T06:52:46.921Z,3.20
2017-12-30T06:55:16.369Z,3.20
2017-12-30T06:57:45.854Z,3.30
2017-12-30T07:00:15.309Z,3.30
2017-12-30T07:02:44.846Z,3.30
2017-12-30T07:05:14.691Z,3.30
2017-12-30T07:07:44.091Z,3.30
2017-12-30T07:10:13.622Z,3.30
2017-12-30T07:12:43.215Z,3.30
2017-12-30T07:15:12.845Z,3.30
2017-12-30T07:17:42.328Z,3.40
2017-12-30T07:20:11.869Z,3.40
2017-12-30T07:22:41.537Z,3.40
2017-12-30T07:25:11.181Z,3.30
2017-12-30T07:27:40.943Z,3.40
2017-12-30T07:30:10.479Z,3.30
2017-12-30T07:32:39.914Z,3.30
2017-12-30T07:35:09.390Z,3.40
2017-12-30T07:37:38.865Z,3.40
2017-12-30T07:40:09.141Z,3.40
2017-12-30T07:42:39.441Z,3.40
2017-12-30T07:45:09.110Z,3.40
2017-12-30T07:47:39.261Z,3.40
2017-12-30T07:50:08.781Z,3.40
2017-12-30T07:52:38.282Z,3.40
2017-12-30T07:55:07.721Z,3.50
2017-12-30T07:57:37.233Z,3.50
2017-12-30T08:00:07.949Z,3.50
2017-12-30T08:02:37.415Z,3.50
2017-12-30T08:05:07.098Z,3.50
2017-12-30T08:07:36.646Z,3.50
2017-12-30T08:10:06.227Z,3.50
2017-12-30T08:12:35.722Z,3.40
2017-12-30T08:15:05.423Z,3.50
2017-12-30T08:17:35.030Z,3.50
2017-12-30T08:20:04.562Z,3.50
2017-12-30T08:22:34.574Z,3.50
2017-12-30T08:25:04.038Z,3.50
2017-12-30T08:27:33.693Z,3.60
2017-12-30T08:30:03.278Z,3.50
2017-12-30T08:32:33.193Z,3.50
2017-12-30T08:35:03.184Z,3.50
2017-12-30T08:37:33.008Z,3.50
2017-12-30T08:40:02.460Z,3.50
2017-12-30T08:42:32.083Z,3.60
2017-12-30T08:45:02.551Z,3.50
2017-12-30T08:47:32.022Z,3.50
2017-12-30T08:50:01.498Z,3.50
2017-12-30T08:52:31.211Z,3.50
2017-12-30T08:55:00.718Z,3.50
2017-12-30T08:57:30.478Z,3.60
2017-12-30T09:00:00.055Z,3.60
2017-12-30T09:02:29.530Z,3.50
2017-12-30T09:04:59.065Z,3.60
2017-12-30T09:07:28.768Z,3.60
2017-12-30T09:09:59.010Z,3.60
2017-12-30T09:12:28.644Z,3.60
2017-12-30T09:14:58.380Z,3.60
2017-12-30T09:17:27.838Z,3.60
2017-12-30T09:19:57.726Z,3.60
2017-12-30T09:22:28.055Z,3.60
2017-12-30T09:24:57.573Z,3.60
2017-12-30T09:27:27.220Z,3.60
2017-12-30T09:29:56.653Z,3.60
2017-12-30T09:32:26.345Z,3.60
2017-12-30T09:34:57.368Z,3.60
2017-12-30T09:37:26.843Z,3.60
2017-12-30T09:39:56.454Z,3.60
2017-12-30T09:42:27.132Z,3.70
2017-12-30T09:44:57.559Z,3.60
2017-12-30T09:47:27.061Z,3.60
2017-12-30T09:49:56.905Z,3.60
2017-12-30T09:52:26.546Z,3.60
2017-12-30T09:54:56.378Z,3.70
2017-12-30T09:57:25.890Z,3.70
2017-12-30T09:59:56.373Z,3.70
2017-12-30T10:02:26.064Z,3.70
2017-12-30T10:04:55.631Z,3.70
2017-12-30T10:07:25.367Z,3.70
2017-12-30T10:09:54.826Z,3.70
2017-12-30T10:12:24.279Z,3.70
2017-12-30T10:14:54.659Z,3.70
2017-12-30T10:17:24.148Z,3.70
2017-12-30T10:19:53.631Z,3.70
2017-12-30T10:22:23.510Z,3.70
2017-12-30T10:24:53.005Z,3.70
2017-12-30T10:27:22.466Z,3.70
2017-12-30T10:29:52.433Z,3.70
2017-12-30T10:32:22.007Z,3.70
2017-12-30T10:34:51.518Z,3.70
2017-12-30T10:37:21.014Z,3.70
2017-12-30T10:39:51.098Z,3.70
2017-12-30T10:42:20.751Z,3.70
2017-12-30T10:44:50.352Z,3.70
2017-12-30T10:47:20.589Z,3.70
2017-12-30T10:49:50.319Z,3.70
2017-12-30T10:52:20.894Z,3.70
2017-12-30T10:54:50.821Z,3.70
2017-12-30T10:57:20.555Z,3.70
2017-12-30T10:59:50.891Z,3.70
2017-12-30T11:02:21.209Z,3.70
2017-12-30T11:04:50.720Z,3.70
2017-12-30T11:07:20.370Z,3.70
2017-12-30T11:09:50.069Z,3.70
2017-12-30T11:12:19.919Z,3.70
2017-12-30T11:14:49.394Z,3.70
2017-12-30T11:17:18.866Z,3.70
2017-12-30T11:19:48.348Z,3.70
2017-12-30T11:22:17.802Z,3.70
2017-12-30T11:24:47.283Z,3.70
2017-12-30T11:27:17.643Z,3.70
2017-12-30T11:29:47.478Z,3.70
2017-12-30T11:32:17.190Z,3.70
2017-12-30T11:34:47.102Z,3.70
2017-12-30T11:37:16.592Z,3.70
2017-12-30T11:39:47.652Z,3.70
2017-12-30T11:42:17.977Z,3.70
2017-12-30T11:44:47.500Z,3.70
2017-12-30T11:47:17.430Z,3.70
2017-12-30T11:49:47.520Z,3.70
2017-12-30T11:52:18.511Z,3.70
2017-12-30T11:54:48.106Z,3.70
2017-12-30T11:57:18.337Z,3.60
2017-12-30T11:59:48.762Z,3.60
2017-12-30T12:02:18.348Z,3.60
2017-12-30T12:04:48.063Z,3.60
2017-12-30T12:07:17.522Z,3.60
2017-12-30T12:09:47.470Z,3.70
2017-12-30T12:12:17.045Z,3.70
2017-12-30T12:14:46.554Z,3.70
2017-12-30T12:17:16.377Z,3.60
2017-12-30T12:19:45.987Z,3.60
2017-12-30T12:22:15.742Z,3.60
2017-12-30T12:24:45.527Z,3.60
2017-12-30T12:27:15.103Z,3.60
2017-12-30T12:29:44.800Z,3.60
2017-12-30T12:32:14.529Z,3.60
2017-12-30T12:34:44.501Z,3.60
2017-12-30T12:37:14.265Z,3.60
2017-12-30T12:39:44.006Z,3.60
2017-12-30T12:42:13.796Z,3.60
2017-12-30T12:44:43.339Z,3.60
2017-12-30T12:47:12.907Z,3.60
2017-12-30T12:49:42.646Z,3.60
2017-12-30T12:52:12.327Z,3.60
2017-12-30T12:54:41.917Z,3.60
2017-12-30T12:57:12.187Z,3.60
2017-12-30T12:59:41.777Z,3.60
2017-12-30T13:02:12.259Z,3.60
2017-12-30T13:04:42.260Z,3.60
2017-12-30T13:07:11.927Z,3.60
2017-12-30T13:09:42.485Z,3.60
2017-12-30T13:12:12.246Z,3.60
2017-12-30T13:14:42.113Z,3.60
2017-12-30T13:17:11.582Z,3.60
2017-12-30T13:19:41.339Z,3.60
2017-12-30T13:22:11.027Z,3.60
2017-12-30T13:24:40.993Z,3.60
2017-12-30T13:27:10.789Z,3.60
2017-12-30T13:29:40.528Z,3.60
2017-12-30T13:32:10.271Z,3.60
2017-12-30T13:34:39.806Z,3.60
2017-12-30T13:37:09.358Z,3.60
2017-12-30T13:39:39.391Z,3.60
2017-12-30T13:42:09.177Z,3.60
2017-12-30T13:44:38.790Z,3.60
2017-12-30T13:47:09.298Z,3.60
2017-12-30T13:49:39.210Z,3.60
2017-12-30T13:52:08.970Z,3.60
2017-12-30T13:54:38.643Z,3.60
2017-12-30T13:57:08.970Z,3.60
2017-12-30T13:59:38.732Z,3.60
2017-12-30T14:02:08.541Z,3.60
2017-12-30T14:04:38.323Z,3.60
2017-12-30T14:07:09.351Z,3.60
2017-12-30T14:09:38.918Z,3.60
2017-12-30T14:12:08.718Z,3.60
2017-12-30T14:14:38.217Z,3.60
2017-12-30T14:17:07.899Z,3.60
2017-12-30T14:19:37.798Z,3.60
2017-12-30T14:22:08.763Z,3.60
2017-12-30T14:24:38.463Z,3.60
2017-12-30T14:27:08.221Z,3.60
2017-12-30T14:29:37.713Z,3.60
2017-12-30T14:32:07.372Z,3.60
2017-12-30T14:34:38.116Z,3.60
2017-12-30T14:37:07.974Z,3.60
2017-12-30T14:39:37.799Z,3.60
2017-12-30T14:42:07.589Z,3.60
2017-12-30T14:44:37.148Z,3.60
2017-12-30T14:47:07.599Z,3.60
2017-12-30T14:49:37.224Z,3.60
2017-12-30T14:52:07.079Z,3.60
2017-12-30T14:54:36.778Z,3.60
2017-12-30T14:57:06.628Z,3.60
2017-12-30T14:59:36.491Z,3.60
2017-12-30T15:02:06.227Z,3.60
2017-12-30T15:04:36.261Z,3.60
2017-12-30T15:07:07.280Z,3.60
2017-12-30T15:09:38.200Z,3.60
2017-12-30T15:12:07.895Z,3.60
2017-12-30T15:14:37.579Z,3.60
2017-12-30T15:17:07.107Z,3.60
2017-12-30T15:19:37.029Z,3.60
2017-12-30T15:22:06.827Z,3.60
2017-12-30T15:24:36.652Z,3.60
2017-12-30T15:27:06.477Z,3.60
2017-12-30T15:29:36.071Z,3.60
2017-12-30T15:32:22.095Z,3.60
2017-12-30T15:34:58.784Z,3.60
2017-12-30T15:37:29.036Z,3.60
2017-12-30T15:39:58.843Z,3.50
2017-12-30T15:42:28.402Z,3.50
2017-12-30T15:44:58.006Z,3.60
2017-12-30T15:47:27.569Z,3.50
2017-12-30T15:49:57.019Z,3.50
2017-12-30T15:52:26.875Z,3.60
2017-12-30T15:54:56.655Z,3.50
2017-12-30T15:57:27.305Z,3.60
2017-12-30T15:59:57.074Z,3.50
2017-12-30T16:02:27.787Z,3.50
2017-12-30T16:04:58.015Z,3.60
2017-12-30T16:07:27.931Z,3.50
2017-12-30T16:09:58.411Z,3.60
2017-12-30T16:12:29.030Z,3.50
2017-12-30T16:14:58.764Z,3.50
2017-12-30T16:17:28.923Z,3.50
2017-12-30T16:19:58.916Z,3.50
2017-12-30T16:22:28.628Z,3.50
2017-12-30T16:24:58.357Z,3.50
2017-12-30T16:27:27.952Z,3.50
2017-12-30T16:29:58.046Z,3.50
2017-12-30T16:32:27.871Z,3.50
2017-12-30T16:34:57.669Z,3.50
2017-12-30T16:37:27.349Z,3.50
2017-12-30T16:39:56.943Z,3.50
2017-12-30T16:42:26.624Z,3.50
2017-12-30T16:44:56.325Z,3.60
2017-12-30T16:47:26.121Z,3.50
2017-12-30T16:49:55.910Z,3.50
2017-12-30T16:52:26.506Z,3.50
2017-12-30T16:54:56.271Z,3.50
2017-12-30T16:57:26.313Z,3.50
2017-12-30T16:59:55.846Z,3.50
2017-12-30T17:02:25.604Z,3.50
2017-12-30T17:04:55.515Z,3.60
2017-12-30T17:07:25.209Z,3.50
2017-12-30T17:09:55.565Z,3.60
2017-12-30T17:12:25.230Z,3.50
2017-12-30T17:14:56.023Z,3.50
2017-12-30T17:17:25.733Z,3.50
2017-12-30T17:19:55.483Z,3.50
2017-12-30T17:22:25.052Z,3.50
2017-12-30T17:24:54.569Z,3.50
2017-12-30T17:27:24.305Z,3.60
2017-12-30T17:29:55.073Z,3.50
2017-12-30T17:32:24.659Z,3.50
2017-12-30T17:34:54.710Z,3.50
2017-12-30T17:37:24.794Z,3.50
2017-12-30T17:39:55.314Z,3.50
2017-12-30T17:42:25.877Z,3.50
2017-12-30T17:44:55.593Z,3.50
2017-12-30T17:47:25.162Z,3.50
2017-12-30T17:49:54.995Z,3.50
2017-12-30T17:52:24.709Z,3.50
2017-12-30T17:54:54.269Z,3.50
2017-12-30T17:58:37.457Z,3.60
2017-12-30T18:01:07.449Z,3.60
2017-12-30T18:03:36.958Z,3.60
2017-12-30T18:06:06.944Z,3.60
2017-12-30T18:11:18.073Z,3.60
2017-12-30T18:13:47.964Z,3.60
2017-12-30T18:16:18.328Z,3.60
2017-12-30T18:18:48.051Z,3.60
2017-12-30T18:21:17.876Z,3.60
2017-12-30T18:23:48.469Z,3.60
2017-12-30T18:26:18.412Z,3.60
2017-12-30T18:28:48.095Z,3.50
2017-12-30T18:31:17.881Z,3.60
2017-12-30T18:33:47.763Z,3.60
2017-12-30T18:36:18.085Z,3.50
2017-12-30T18:38:47.854Z,3.60
2017-12-30T18:41:17.443Z,3.60
2017-12-30T18:43:47.398Z,3.60
2017-12-30T18:46:17.321Z,3.60
2017-12-30T18:48:46.868Z,3.60
2017-12-30T18:51:16.849Z,3.60
2017-12-30T18:53:46.493Z,3.60
2017-12-30T18:56:16.194Z,3.60
2017-12-30T19:02:18.143Z,3.60
2017-12-30T19:04:48.037Z,3.60
2017-12-30T19:07:17.873Z,3.60
2017-12-30T19:09:48.171Z,3.60
2017-12-30T19:12:17.776Z,3.60
2017-12-30T19:14:47.652Z,3.60
2017-12-30T19:17:17.282Z,3.60
2017-12-30T19:19:47.000Z,3.60
2017-12-30T19:22:16.764Z,3.60
2017-12-30T19:24:47.138Z,3.60
2017-12-30T19:27:16.935Z,3.60
2017-12-30T19:29:46.870Z,3.50
2017-12-30T19:32:16.710Z,3.50
2017-12-30T19:34:46.713Z,3.60
2017-12-30T19:37:16.534Z,3.60
2017-12-30T19:39:46.337Z,3.60
2017-12-30T19:42:16.068Z,3.60
2017-12-30T19:44:47.168Z,3.50
2017-12-30T19:47:16.878Z,3.60
2017-12-30T19:49:46.522Z,3.60
2017-12-30T19:52:16.270Z,3.50
2017-12-30T19:54:46.751Z,3.60
2017-12-30T19:57:16.496Z,3.60
2017-12-30T19:59:46.542Z,3.50
2017-12-30T20:02:17.167Z,3.60
2017-12-30T20:04:46.901Z,3.60
2017-12-30T20:07:16.667Z,3.60
2017-12-30T20:09:47.249Z,3.60
2017-12-30T20:12:16.828Z,3.60
2017-12-30T20:14:46.653Z,3.60
2017-12-30T20:17:17.212Z,3.60
2017-12-30T20:19:47.725Z,3.50
2017-12-30T20:22:17.521Z,3.60
2017-12-30T20:24:47.573Z,3.60
2017-12-30T20:27:17.356Z,3.60
2017-12-30T20:29:47.387Z,3.60
2017-12-30T20:32:17.431Z,3.60
2017-12-30T20:34:47.413Z,3.60
2017-12-30T20:37:17.368Z,3.60
2017-12-30T20:39:47.248Z,3.60
2017-12-30T20:42:17.122Z,3.60
2017-12-30T20:44:47.683Z,3.60
2017-12-30T20:47:17.367Z,3.60
2017-12-30T20:49:46.987Z,3.50
2017-12-30T20:52:16.791Z,3.60
2017-12-30T20:54:46.515Z,3.60
2017-12-30T20:57:16.369Z,3.60
2017-12-30T20:59:46.026Z,3.60
2017-12-30T21:02:15.602Z,3.60
2017-12-30T21:04:45.589Z,3.60
2017-12-30T21:07:15.344Z,3.60
2017-12-30T21:09:45.743Z,3.60
2017-12-30T21:12:15.441Z,3.60
2017-12-30T21:14:45.306Z,3.60
2017-12-30T21:17:15.126Z,3.60
2017-12-30T21:19:44.766Z,3.60
2017-12-30T21:22:14.442Z,3.60
2017-12-30T21:24:44.492Z,3.60
2017-12-30T21:27:14.114Z,3.60
2017-12-30T21:29:44.066Z,3.60
2017-12-30T21:32:14.177Z,3.60
2017-12-30T21:34:45.027Z,3.60
2017-12-30T21:37:14.687Z,3.60
2017-12-30T21:39:44.472Z,3.60
2017-12-30T21:42:13.998Z,3.60
2017-12-30T21:44:44.110Z,3.50
2017-12-30T21:47:13.800Z,3.60
2017-12-30T21:49:43.556Z,3.60
2017-12-30T21:52:13.258Z,3.60
2017-12-30T21:54:43.188Z,3.60
2017-12-30T21:57:12.778Z,3.60
2017-12-30T21:59:42.479Z,3.60
2017-12-30T22:02:12.511Z,3.60
2017-12-30T22:04:42.553Z,3.50
2017-12-30T22:07:13.011Z,3.60
2017-12-30T22:09:42.664Z,3.60
2017-12-30T22:12:12.380Z,3.60
2017-12-30T22:14:42.137Z,3.60
2017-12-30T22:17:12.320Z,3.60
2017-12-30T22:19:42.713Z,3.60
2017-12-30T22:22:12.424Z,3.60
2017-12-30T22:24:42.324Z,3.60
2017-12-30T22:27:12.102Z,3.60
2017-12-30T22:29:41.810Z,3.60
2017-12-30T22:32:11.537Z,3.60
2017-12-30T22:34:41.359Z,3.60
2017-12-30T22:37:11.167Z,3.50
2017-12-30T22:39:42.273Z,3.50
2017-12-30T22:42:11.871Z,3.50
2017-12-30T22:44:41.870Z,3.50
2017-12-30T22:47:11.765Z,3.50
2017-12-30T22:49:41.559Z,3.50
2017-12-30T22:52:11.437Z,3.50
2017-12-30T22:54:41.589Z,3.50
2017-12-30T22:57:12.339Z,3.50
2017-12-30T22:59:42.046Z,3.50
2017-12-30T23:02:11.903Z,3.50
2017-12-30T23:04:46.862Z,3.50
2017-12-30T23:07:17.316Z,3.50
2017-12-30T23:09:47.168Z,3.50
2017-12-30T23:12:17.863Z,3.50
2017-12-30T23:14:47.823Z,3.50
2017-12-30T23:17:17.460Z,3.50
2017-12-30T23:19:47.414Z,3.50
2017-12-30T23:22:16.981Z,3.50
2017-12-30T23:24:46.797Z,3.50
2017-12-30T23:27:16.399Z,3.60
2017-12-30T23:29:46.011Z,3.50
2017-12-30T23:32:15.574Z,3.60
2017-12-30T23:34:45.252Z,3.60
2017-12-30T23:37:15.180Z,3.50
2017-12-30T23:39:45.180Z,3.50
2017-12-30T23:42:15.054Z,3.60
2017-12-30T23:44:44.502Z,3.50
2017-12-30T23:47:15.774Z,3.50
2017-12-30T23:49:45.390Z,3.60
2017-12-30T23:52:14.908Z,3.60
2017-12-30T23:54:44.707Z,3.50
2017-12-30T23:57:15.972Z,3.50
2017-12-30T23:59:45.526Z,3.50
